Archival Weather

Chicago O'Hare International

Chicago, Illinois (KORD)

Report from: Thursday, December 29, 2022 6:51 AM CST
Current time: Friday, June 21, 2024 3:06 AM CDT

Current weather – Weather history – Daily summaries
Weather forecast

Temperature7.8°C (46.0°F)
Wind chill3.7°C (38.7°F)
Dew point4.4°C (39.9°F)
Winds 16 kts (8.2 m/s, 18.4 mph) South (190°)
Wind gusts 26 kts (13.4 m/s, 29.9 mph)
Peak wind 26 kts (13.4 m/s, 29.9 mph) South (190°) at 12:51
Visibility10 mi. (16.1 km)
Clouds Few clouds 1,500 ft. (457 m)
Ceiling: Broken clouds 25,000 ft. (7,620 m)
Altimeter29.79 in.Hg (1009 mB)
Relative humidity79 %
Density altitude-604 ft. (-184 m)
Sea-level pressure100.9 kPa (1009 mB, 29.80 in.Hg)
Remarks Automated weather observing station with precipitation discriminator
Flight conditions Visual Meteorological Conditions
Raw dataKORD 291251Z 19016G26KT 10SM FEW015 BKN250 08/04 A2979 RMK AO2 PK WND 19026/1251 SLP092 T00780044
An error has occurred. This application may no longer respond until reloaded. Reload 🗙